sensor_id;sensor_type;location;lat;lon;timestamp;P1;durP1;ratioP1;P2;durP2;ratioP2
18433;SDS011;9344;52.294;13.626;2022-12-24T00:02:24;9.18;;;3.55;;
18433;SDS011;9344;52.294;13.626;2022-12-24T00:04:51;8.30;;;3.65;;
18433;SDS011;9344;52.294;13.626;2022-12-24T00:07:18;6.80;;;2.83;;
18433;SDS011;9344;52.294;13.626;2022-12-24T00:09:44;7.35;;;3.20;;
18433;SDS011;9344;52.294;13.626;2022-12-24T00:12:11;8.18;;;3.08;;
18433;SDS011;9344;52.294;13.626;2022-12-24T00:14:37;9.25;;;3.00;;
18433;SDS011;9344;52.294;13.626;2022-12-24T00:17:04;9.55;;;3.40;;
18433;SDS011;9344;52.294;13.626;2022-12-24T00:19:32;6.45;;;3.35;;
18433;SDS011;9344;52.294;13.626;2022-12-24T00:21:58;7.85;;;3.05;;
18433;SDS011;9344;52.294;13.626;2022-12-24T00:24:25;9.15;;;3.00;;
18433;SDS011;9344;52.294;13.626;2022-12-24T00:26:51;7.82;;;3.20;;
18433;SDS011;9344;52.294;13.626;2022-12-24T00:29:18;7.32;;;2.88;;
18433;SDS011;9344;52.294;13.626;2022-12-24T00:31:44;6.57;;;2.80;;
18433;SDS011;9344;52.294;13.626;2022-12-24T00:34:11;6.82;;;3.20;;
18433;SDS011;9344;52.294;13.626;2022-12-24T00:36:39;6.80;;;2.85;;
18433;SDS011;9344;52.294;13.626;2022-12-24T00:39:05;6.72;;;2.83;;
18433;SDS011;9344;52.294;13.626;2022-12-24T00:41:32;5.35;;;2.30;;
18433;SDS011;9344;52.294;13.626;2022-12-24T00:43:59;8.95;;;2.60;;
18433;SDS011;9344;52.294;13.626;2022-12-24T00:46:28;4.90;;;2.38;;
18433;SDS011;9344;52.294;13.626;2022-12-24T00:48:55;4.80;;;2.30;;
18433;SDS011;9344;52.294;13.626;2022-12-24T00:51:22;5.30;;;2.38;;
18433;SDS011;9344;52.294;13.626;2022-12-24T00:53:51;8.85;;;2.55;;
18433;SDS011;9344;52.294;13.626;2022-12-24T00:56:18;5.07;;;2.45;;
18433;SDS011;9344;52.294;13.626;2022-12-24T00:58:45;3.80;;;1.88;;
18433;SDS011;9344;52.294;13.626;2022-12-24T01:01:12;4.55;;;1.88;;
18433;SDS011;9344;52.294;13.626;2022-12-24T01:03:39;4.30;;;2.33;;
18433;SDS011;9344;52.294;13.626;2022-12-24T01:06:07;3.65;;;1.73;;
18433;SDS011;9344;52.294;13.626;2022-12-24T01:08:35;4.35;;;2.15;;
18433;SDS011;9344;52.294;13.626;2022-12-24T01:11:03;3.42;;;1.73;;
18433;SDS011;9344;52.294;13.626;2022-12-24T01:13:31;5.53;;;2.40;;
18433;SDS011;9344;52.294;13.626;2022-12-24T01:15:58;4.25;;;2.00;;
18433;SDS011;9344;52.294;13.626;2022-12-24T01:18:25;5.68;;;1.88;;
18433;SDS011;9344;52.294;13.626;2022-12-24T01:20:55;5.90;;;2.38;;
18433;SDS011;9344;52.294;13.626;2022-12-24T01:23:23;3.92;;;1.88;;
18433;SDS011;9344;52.294;13.626;2022-12-24T01:25:49;3.30;;;1.65;;
18433;SDS011;9344;52.294;13.626;2022-12-24T01:28:17;3.13;;;1.65;;
18433;SDS011;9344;52.294;13.626;2022-12-24T01:30:44;6.40;;;2.63;;
18433;SDS011;9344;52.294;13.626;2022-12-24T01:33:11;2.72;;;1.70;;
18433;SDS011;9344;52.294;13.626;2022-12-24T01:35:37;5.85;;;2.05;;
18433;SDS011;9344;52.294;13.626;2022-12-24T01:38:04;3.22;;;1.77;;
18433;SDS011;9344;52.294;13.626;2022-12-24T01:40:31;4.07;;;2.00;;
18433;SDS011;9344;52.294;13.626;2022-12-24T01:43:16;5.05;;;1.98;;
18433;SDS011;9344;52.294;13.626;2022-12-24T01:45:53;4.45;;;1.90;;
18433;SDS011;9344;52.294;13.626;2022-12-24T01:48:30;5.35;;;2.10;;
18433;SDS011;9344;52.294;13.626;2022-12-24T01:51:01;3.55;;;1.88;;
18433;SDS011;9344;52.294;13.626;2022-12-24T01:53:31;3.15;;;1.77;;
18433;SDS011;9344;52.294;13.626;2022-12-24T01:56:02;4.65;;;2.17;;
18433;SDS011;9344;52.294;13.626;2022-12-24T01:58:31;5.97;;;2.17;;
18433;SDS011;9344;52.294;13.626;2022-12-24T02:00:58;4.95;;;2.00;;
18433;SDS011;9344;52.294;13.626;2022-12-24T02:03:25;5.30;;;2.28;;
18433;SDS011;9344;52.294;13.626;2022-12-24T02:05:52;5.13;;;1.83;;
18433;SDS011;9344;52.294;13.626;2022-12-24T02:08:20;5.63;;;2.33;;
18433;SDS011;9344;52.294;13.626;2022-12-24T02:10:47;4.22;;;1.83;;
18433;SDS011;9344;52.294;13.626;2022-12-24T02:13:16;5.50;;;1.85;;
18433;SDS011;9344;52.294;13.626;2022-12-24T02:15:50;7.38;;;2.42;;
18433;SDS011;9344;52.294;13.626;2022-12-24T02:18:29;4.05;;;1.90;;
18433;SDS011;9344;52.294;13.626;2022-12-24T02:21:05;4.10;;;2.20;;
18433;SDS011;9344;52.294;13.626;2022-12-24T02:27:10;4.45;;;2.30;;
18433;SDS011;9344;52.294;13.626;2022-12-24T02:32:29;6.35;;;2.53;;
18433;SDS011;9344;52.294;13.626;2022-12-24T02:35:03;5.35;;;2.47;;
18433;SDS011;9344;52.294;13.626;2022-12-24T02:37:34;7.25;;;2.30;;
18433;SDS011;9344;52.294;13.626;2022-12-24T02:40:06;3.75;;;2.00;;
18433;SDS011;9344;52.294;13.626;2022-12-24T02:42:36;5.93;;;2.80;;
18433;SDS011;9344;52.294;13.626;2022-12-24T02:45:07;3.65;;;1.98;;
18433;SDS011;9344;52.294;13.626;2022-12-24T02:47:36;5.13;;;1.98;;
18433;SDS011;9344;52.294;13.626;2022-12-24T02:50:05;5.93;;;2.50;;
18433;SDS011;9344;52.294;13.626;2022-12-24T02:52:34;7.05;;;2.50;;
18433;SDS011;9344;52.294;13.626;2022-12-24T02:55:02;6.32;;;2.53;;
18433;SDS011;9344;52.294;13.626;2022-12-24T02:57:38;8.40;;;2.83;;
18433;SDS011;9344;52.294;13.626;2022-12-24T03:00:20;5.28;;;2.90;;
18433;SDS011;9344;52.294;13.626;2022-12-24T03:02:54;6.60;;;3.05;;
18433;SDS011;9344;52.294;13.626;2022-12-24T03:05:34;4.85;;;2.50;;
18433;SDS011;9344;52.294;13.626;2022-12-24T03:08:09;7.32;;;2.70;;
18433;SDS011;9344;52.294;13.626;2022-12-24T03:10:41;8.98;;;2.97;;
18433;SDS011;9344;52.294;13.626;2022-12-24T03:13:16;8.48;;;3.38;;
18433;SDS011;9344;52.294;13.626;2022-12-24T03:15:46;8.00;;;3.03;;
18433;SDS011;9344;52.294;13.626;2022-12-24T03:18:15;5.53;;;2.60;;
18433;SDS011;9344;52.294;13.626;2022-12-24T03:20:44;6.63;;;2.72;;
18433;SDS011;9344;52.294;13.626;2022-12-24T03:23:17;6.07;;;2.90;;
18433;SDS011;9344;52.294;13.626;2022-12-24T03:25:44;8.32;;;3.15;;
18433;SDS011;9344;52.294;13.626;2022-12-24T03:28:11;6.03;;;2.63;;
18433;SDS011;9344;52.294;13.626;2022-12-24T03:30:40;6.63;;;2.95;;
18433;SDS011;9344;52.294;13.626;2022-12-24T03:33:10;6.25;;;2.83;;
18433;SDS011;9344;52.294;13.626;2022-12-24T03:35:37;9.23;;;3.17;;
18433;SDS011;9344;52.294;13.626;2022-12-24T03:38:04;11.23;;;3.38;;
18433;SDS011;9344;52.294;13.626;2022-12-24T03:40:31;7.53;;;3.47;;
18433;SDS011;9344;52.294;13.626;2022-12-24T03:42:57;8.13;;;3.30;;
18433;SDS011;9344;52.294;13.626;2022-12-24T03:45:24;9.88;;;3.85;;
18433;SDS011;9344;52.294;13.626;2022-12-24T03:47:51;7.95;;;2.90;;
18433;SDS011;9344;52.294;13.626;2022-12-24T03:50:19;7.32;;;3.08;;
18433;SDS011;9344;52.294;13.626;2022-12-24T03:52:46;8.93;;;3.70;;
18433;SDS011;9344;52.294;13.626;2022-12-24T03:55:12;9.23;;;3.58;;
18433;SDS011;9344;52.294;13.626;2022-12-24T03:57:39;9.52;;;3.63;;
18433;SDS011;9344;52.294;13.626;2022-12-24T04:00:06;6.82;;;3.40;;
18433;SDS011;9344;52.294;13.626;2022-12-24T04:02:33;9.93;;;3.88;;
18433;SDS011;9344;52.294;13.626;2022-12-24T04:05:00;9.23;;;4.10;;
18433;SDS011;9344;52.294;13.626;2022-12-24T04:07:28;11.90;;;4.10;;
18433;SDS011;9344;52.294;13.626;2022-12-24T04:09:54;9.38;;;3.85;;
18433;SDS011;9344;52.294;13.626;2022-12-24T04:12:21;9.45;;;4.18;;
18433;SDS011;9344;52.294;13.626;2022-12-24T04:14:47;10.77;;;4.15;;
18433;SDS011;9344;52.294;13.626;2022-12-24T04:17:14;14.48;;;4.70;;
18433;SDS011;9344;52.294;13.626;2022-12-24T04:19:40;10.15;;;3.95;;
18433;SDS011;9344;52.294;13.626;2022-12-24T04:22:07;12.38;;;4.35;;
18433;SDS011;9344;52.294;13.626;2022-12-24T04:24:35;10.45;;;3.97;;
18433;SDS011;9344;52.294;13.626;2022-12-24T04:27:01;11.55;;;4.65;;
18433;SDS011;9344;52.294;13.626;2022-12-24T04:29:28;9.95;;;3.88;;
18433;SDS011;9344;52.294;13.626;2022-12-24T04:31:55;10.40;;;4.13;;
18433;SDS011;9344;52.294;13.626;2022-12-24T04:34:21;9.63;;;4.07;;
18433;SDS011;9344;52.294;13.626;2022-12-24T04:36:48;14.50;;;5.40;;
18433;SDS011;9344;52.294;13.626;2022-12-24T04:39:14;12.82;;;5.28;;
18433;SDS011;9344;52.294;13.626;2022-12-24T04:41:42;12.98;;;4.93;;
18433;SDS011;9344;52.294;13.626;2022-12-24T04:44:08;12.27;;;4.57;;
18433;SDS011;9344;52.294;13.626;2022-12-24T04:46:35;11.20;;;4.85;;
18433;SDS011;9344;52.294;13.626;2022-12-24T04:49:02;15.98;;;4.70;;
18433;SDS011;9344;52.294;13.626;2022-12-24T04:51:28;12.27;;;4.70;;
18433;SDS011;9344;52.294;13.626;2022-12-24T04:53:55;14.80;;;5.53;;
18433;SDS011;9344;52.294;13.626;2022-12-24T04:56:22;14.80;;;5.28;;
18433;SDS011;9344;52.294;13.626;2022-12-24T04:58:52;13.07;;;4.65;;
18433;SDS011;9344;52.294;13.626;2022-12-24T05:01:20;13.65;;;4.50;;
18433;SDS011;9344;52.294;13.626;2022-12-24T05:03:48;12.32;;;5.00;;
18433;SDS011;9344;52.294;13.626;2022-12-24T05:06:16;12.27;;;4.25;;
18433;SDS011;9344;52.294;13.626;2022-12-24T05:08:45;14.25;;;4.80;;
18433;SDS011;9344;52.294;13.626;2022-12-24T05:11:11;13.98;;;5.45;;
18433;SDS011;9344;52.294;13.626;2022-12-24T05:13:39;12.73;;;4.80;;
18433;SDS011;9344;52.294;13.626;2022-12-24T05:16:07;14.98;;;4.82;;
18433;SDS011;9344;52.294;13.626;2022-12-24T05:18:34;17.20;;;5.45;;
18433;SDS011;9344;52.294;13.626;2022-12-24T05:21:01;20.30;;;7.30;;
18433;SDS011;9344;52.294;13.626;2022-12-24T05:23:28;25.85;;;8.25;;
18433;SDS011;9344;52.294;13.626;2022-12-24T05:26:13;23.10;;;8.02;;
18433;SDS011;9344;52.294;13.626;2022-12-24T05:28:49;25.88;;;8.38;;
18433;SDS011;9344;52.294;13.626;2022-12-24T05:31:18;24.70;;;7.07;;
18433;SDS011;9344;52.294;13.626;2022-12-24T05:33:45;14.95;;;5.88;;
18433;SDS011;9344;52.294;13.626;2022-12-24T05:36:11;14.15;;;5.10;;
18433;SDS011;9344;52.294;13.626;2022-12-24T05:38:38;13.70;;;4.57;;
18433;SDS011;9344;52.294;13.626;2022-12-24T05:41:05;15.30;;;5.18;;
18433;SDS011;9344;52.294;13.626;2022-12-24T05:43:33;13.27;;;4.70;;
18433;SDS011;9344;52.294;13.626;2022-12-24T05:46:00;12.20;;;4.85;;
18433;SDS011;9344;52.294;13.626;2022-12-24T05:48:30;19.15;;;7.32;;
18433;SDS011;9344;52.294;13.626;2022-12-24T05:50:56;17.70;;;5.97;;
18433;SDS011;9344;52.294;13.626;2022-12-24T05:53:23;14.90;;;5.35;;
18433;SDS011;9344;52.294;13.626;2022-12-24T05:55:49;13.13;;;4.97;;
18433;SDS011;9344;52.294;13.626;2022-12-24T05:58:16;12.02;;;5.03;;
18433;SDS011;9344;52.294;13.626;2022-12-24T06:00:42;13.15;;;4.78;;
18433;SDS011;9344;52.294;13.626;2022-12-24T06:03:09;12.10;;;4.95;;
18433;SDS011;9344;52.294;13.626;2022-12-24T06:05:37;13.05;;;4.35;;
18433;SDS011;9344;52.294;13.626;2022-12-24T06:08:05;9.52;;;4.22;;
18433;SDS011;9344;52.294;13.626;2022-12-24T06:10:31;15.88;;;4.68;;
18433;SDS011;9344;52.294;13.626;2022-12-24T06:12:58;14.18;;;4.72;;
18433;SDS011;9344;52.294;13.626;2022-12-24T06:15:24;11.20;;;3.97;;
18433;SDS011;9344;52.294;13.626;2022-12-24T06:17:51;14.35;;;5.10;;
18433;SDS011;9344;52.294;13.626;2022-12-24T06:20:17;12.63;;;4.15;;
18433;SDS011;9344;52.294;13.626;2022-12-24T06:22:45;11.30;;;4.60;;
18433;SDS011;9344;52.294;13.626;2022-12-24T06:25:12;11.55;;;4.28;;
18433;SDS011;9344;52.294;13.626;2022-12-24T06:27:38;11.75;;;4.47;;
18433;SDS011;9344;52.294;13.626;2022-12-24T06:30:05;14.43;;;4.93;;
18433;SDS011;9344;52.294;13.626;2022-12-24T06:32:33;14.27;;;4.93;;
18433;SDS011;9344;52.294;13.626;2022-12-24T06:34:59;11.55;;;3.92;;
18433;SDS011;9344;52.294;13.626;2022-12-24T06:37:26;13.02;;;4.80;;
18433;SDS011;9344;52.294;13.626;2022-12-24T06:39:54;14.45;;;4.10;;
18433;SDS011;9344;52.294;13.626;2022-12-24T06:42:20;12.32;;;4.35;;
18433;SDS011;9344;52.294;13.626;2022-12-24T06:44:48;11.95;;;4.63;;
18433;SDS011;9344;52.294;13.626;2022-12-24T06:47:14;14.05;;;4.70;;
18433;SDS011;9344;52.294;13.626;2022-12-24T06:49:41;12.52;;;4.57;;
18433;SDS011;9344;52.294;13.626;2022-12-24T06:52:07;12.07;;;4.45;;
18433;SDS011;9344;52.294;13.626;2022-12-24T06:54:34;13.98;;;4.55;;
18433;SDS011;9344;52.294;13.626;2022-12-24T06:57:02;12.90;;;4.30;;
18433;SDS011;9344;52.294;13.626;2022-12-24T06:59:29;12.32;;;4.47;;
18433;SDS011;9344;52.294;13.626;2022-12-24T07:01:55;12.52;;;5.05;;
18433;SDS011;9344;52.294;13.626;2022-12-24T07:04:22;12.75;;;4.35;;
18433;SDS011;9344;52.294;13.626;2022-12-24T07:06:48;9.65;;;4.35;;
18433;SDS011;9344;52.294;13.626;2022-12-24T07:09:15;13.02;;;4.22;;
18433;SDS011;9344;52.294;13.626;2022-12-24T07:11:41;12.75;;;4.90;;
18433;SDS011;9344;52.294;13.626;2022-12-24T07:14:09;9.93;;;4.20;;
18433;SDS011;9344;52.294;13.626;2022-12-24T07:16:36;13.38;;;4.65;;
18433;SDS011;9344;52.294;13.626;2022-12-24T07:19:02;10.82;;;4.00;;
18433;SDS011;9344;52.294;13.626;2022-12-24T07:21:29;16.10;;;4.38;;
18433;SDS011;9344;52.294;13.626;2022-12-24T07:23:56;12.52;;;4.80;;
18433;SDS011;9344;52.294;13.626;2022-12-24T07:26:22;13.30;;;4.50;;
18433;SDS011;9344;52.294;13.626;2022-12-24T07:28:49;12.25;;;4.55;;
18433;SDS011;9344;52.294;13.626;2022-12-24T07:31:17;14.38;;;4.43;;
18433;SDS011;9344;52.294;13.626;2022-12-24T07:33:43;9.20;;;3.90;;
18433;SDS011;9344;52.294;13.626;2022-12-24T07:36:13;13.18;;;4.80;;
18433;SDS011;9344;52.294;13.626;2022-12-24T07:38:43;10.45;;;3.80;;
18433;SDS011;9344;52.294;13.626;2022-12-24T07:41:10;12.60;;;4.65;;
18433;SDS011;9344;52.294;13.626;2022-12-24T07:43:36;13.80;;;4.88;;
18433;SDS011;9344;52.294;13.626;2022-12-24T07:46:03;12.30;;;4.45;;
18433;SDS011;9344;52.294;13.626;2022-12-24T07:48:31;16.42;;;5.40;;
18433;SDS011;9344;52.294;13.626;2022-12-24T07:50:58;14.77;;;5.07;;
18433;SDS011;9344;52.294;13.626;2022-12-24T07:53:25;12.40;;;4.22;;
18433;SDS011;9344;52.294;13.626;2022-12-24T07:55:53;13.23;;;4.53;;
18433;SDS011;9344;52.294;13.626;2022-12-24T07:58:20;10.07;;;3.97;;
18433;SDS011;9344;52.294;13.626;2022-12-24T08:00:47;15.90;;;5.15;;
18433;SDS011;9344;52.294;13.626;2022-12-24T08:03:15;12.18;;;4.40;;
18433;SDS011;9344;52.294;13.626;2022-12-24T08:05:44;13.15;;;4.82;;
18433;SDS011;9344;52.294;13.626;2022-12-24T08:08:11;13.57;;;4.63;;
18433;SDS011;9344;52.294;13.626;2022-12-24T08:10:38;11.20;;;4.00;;
18433;SDS011;9344;52.294;13.626;2022-12-24T08:13:05;12.23;;;4.32;;
18433;SDS011;9344;52.294;13.626;2022-12-24T08:15:32;12.63;;;4.82;;
18433;SDS011;9344;52.294;13.626;2022-12-24T08:17:59;15.20;;;4.97;;
18433;SDS011;9344;52.294;13.626;2022-12-24T08:20:25;12.13;;;4.63;;
18433;SDS011;9344;52.294;13.626;2022-12-24T08:22:53;15.05;;;4.55;;
18433;SDS011;9344;52.294;13.626;2022-12-24T08:25:20;13.95;;;4.20;;
18433;SDS011;9344;52.294;13.626;2022-12-24T08:27:46;12.32;;;4.20;;
18433;SDS011;9344;52.294;13.626;2022-12-24T08:30:13;15.48;;;4.45;;
18433;SDS011;9344;52.294;13.626;2022-12-24T08:32:40;16.17;;;4.70;;
18433;SDS011;9344;52.294;13.626;2022-12-24T08:35:07;13.18;;;4.70;;
18433;SDS011;9344;52.294;13.626;2022-12-24T08:37:34;16.90;;;5.05;;
18433;SDS011;9344;52.294;13.626;2022-12-24T08:40:02;14.95;;;4.80;;
18433;SDS011;9344;52.294;13.626;2022-12-24T08:42:29;12.18;;;5.45;;
18433;SDS011;9344;52.294;13.626;2022-12-24T08:44:55;11.82;;;4.43;;
18433;SDS011;9344;52.294;13.626;2022-12-24T08:47:22;11.13;;;4.20;;
18433;SDS011;9344;52.294;13.626;2022-12-24T08:49:48;10.65;;;4.10;;
18433;SDS011;9344;52.294;13.626;2022-12-24T08:52:15;13.50;;;4.70;;
18433;SDS011;9344;52.294;13.626;2022-12-24T08:54:41;14.18;;;4.38;;
18433;SDS011;9344;52.294;13.626;2022-12-24T08:57:09;13.57;;;4.38;;
18433;SDS011;9344;52.294;13.626;2022-12-24T08:59:36;14.82;;;4.95;;
18433;SDS011;9344;52.294;13.626;2022-12-24T09:02:02;11.60;;;4.38;;
18433;SDS011;9344;52.294;13.626;2022-12-24T09:04:29;16.13;;;5.38;;
18433;SDS011;9344;52.294;13.626;2022-12-24T09:06:55;13.27;;;4.78;;
18433;SDS011;9344;52.294;13.626;2022-12-24T09:09:22;14.65;;;4.78;;
18433;SDS011;9344;52.294;13.626;2022-12-24T09:11:48;10.43;;;3.88;;
18433;SDS011;9344;52.294;13.626;2022-12-24T09:14:16;9.07;;;3.88;;
18433;SDS011;9344;52.294;13.626;2022-12-24T09:16:43;13.50;;;4.57;;
18433;SDS011;9344;52.294;13.626;2022-12-24T09:19:09;12.88;;;4.38;;
18433;SDS011;9344;52.294;13.626;2022-12-24T09:21:36;11.40;;;3.83;;
18433;SDS011;9344;52.294;13.626;2022-12-24T09:24:02;13.52;;;4.20;;
18433;SDS011;9344;52.294;13.626;2022-12-24T09:26:29;9.55;;;3.55;;
18433;SDS011;9344;52.294;13.626;2022-12-24T09:28:57;10.68;;;4.13;;
18433;SDS011;9344;52.294;13.626;2022-12-24T09:31:26;16.08;;;4.00;;
18433;SDS011;9344;52.294;13.626;2022-12-24T09:33:53;9.68;;;3.70;;
18433;SDS011;9344;52.294;13.626;2022-12-24T09:36:19;10.88;;;4.07;;
18433;SDS011;9344;52.294;13.626;2022-12-24T09:38:46;8.70;;;3.58;;
18433;SDS011;9344;52.294;13.626;2022-12-24T09:41:14;10.43;;;3.28;;
18433;SDS011;9344;52.294;13.626;2022-12-24T09:43:52;8.60;;;3.15;;
18433;SDS011;9344;52.294;13.626;2022-12-24T09:46:22;10.18;;;3.63;;
18433;SDS011;9344;52.294;13.626;2022-12-24T09:48:53;8.40;;;3.00;;
18433;SDS011;9344;52.294;13.626;2022-12-24T09:51:24;7.10;;;3.13;;
18433;SDS011;9344;52.294;13.626;2022-12-24T09:53:56;9.85;;;2.65;;
18433;SDS011;9344;52.294;13.626;2022-12-24T09:56:27;6.53;;;2.45;;
18433;SDS011;9344;52.294;13.626;2022-12-24T09:58:57;6.10;;;2.38;;
18433;SDS011;9344;52.294;13.626;2022-12-24T10:01:27;4.32;;;2.00;;
18433;SDS011;9344;52.294;13.626;2022-12-24T10:03:55;5.93;;;2.40;;
18433;SDS011;9344;52.294;13.626;2022-12-24T10:06:23;5.78;;;2.60;;
18433;SDS011;9344;52.294;13.626;2022-12-24T10:09:02;5.28;;;2.63;;
18433;SDS011;9344;52.294;13.626;2022-12-24T10:11:39;5.85;;;2.20;;
18433;SDS011;9344;52.294;13.626;2022-12-24T10:14:16;5.53;;;2.15;;
18433;SDS011;9344;52.294;13.626;2022-12-24T10:16:52;6.10;;;2.50;;
18433;SDS011;9344;52.294;13.626;2022-12-24T10:19:28;4.30;;;2.25;;
18433;SDS011;9344;52.294;13.626;2022-12-24T10:22:06;4.82;;;2.17;;
18433;SDS011;9344;52.294;13.626;2022-12-24T10:24:45;5.00;;;1.95;;
18433;SDS011;9344;52.294;13.626;2022-12-24T10:27:20;4.40;;;1.98;;
18433;SDS011;9344;52.294;13.626;2022-12-24T10:29:51;4.93;;;2.45;;
18433;SDS011;9344;52.294;13.626;2022-12-24T10:32:25;5.03;;;1.90;;
18433;SDS011;9344;52.294;13.626;2022-12-24T10:34:56;4.95;;;1.92;;
18433;SDS011;9344;52.294;13.626;2022-12-24T10:37:27;3.15;;;1.73;;
18433;SDS011;9344;52.294;13.626;2022-12-24T10:39:54;3.78;;;1.75;;
18433;SDS011;9344;52.294;13.626;2022-12-24T10:42:22;3.80;;;1.92;;
18433;SDS011;9344;52.294;13.626;2022-12-24T10:44:54;2.83;;;1.58;;
18433;SDS011;9344;52.294;13.626;2022-12-24T10:47:22;3.17;;;1.50;;
18433;SDS011;9344;52.294;13.626;2022-12-24T10:49:51;3.00;;;1.50;;
18433;SDS011;9344;52.294;13.626;2022-12-24T10:52:26;2.80;;;1.50;;
18433;SDS011;9344;52.294;13.626;2022-12-24T10:55:06;3.17;;;1.58;;
18433;SDS011;9344;52.294;13.626;2022-12-24T10:57:35;3.03;;;1.38;;
18433;SDS011;9344;52.294;13.626;2022-12-24T11:00:03;4.18;;;1.25;;
18433;SDS011;9344;52.294;13.626;2022-12-24T11:02:31;2.97;;;1.50;;
18433;SDS011;9344;52.294;13.626;2022-12-24T11:05:00;5.82;;;1.40;;
18433;SDS011;9344;52.294;13.626;2022-12-24T11:07:29;2.03;;;1.38;;
18433;SDS011;9344;52.294;13.626;2022-12-24T11:09:57;1.60;;;1.02;;
18433;SDS011;9344;52.294;13.626;2022-12-24T11:12:25;2.55;;;1.02;;
18433;SDS011;9344;52.294;13.626;2022-12-24T11:15:01;3.28;;;1.00;;
18433;SDS011;9344;52.294;13.626;2022-12-24T11:17:29;1.70;;;0.90;;
18433;SDS011;9344;52.294;13.626;2022-12-24T11:19:56;2.63;;;1.20;;
18433;SDS011;9344;52.294;13.626;2022-12-24T11:22:26;2.45;;;1.10;;
18433;SDS011;9344;52.294;13.626;2022-12-24T11:24:59;1.38;;;0.98;;
18433;SDS011;9344;52.294;13.626;2022-12-24T11:27:30;2.58;;;1.35;;
18433;SDS011;9344;52.294;13.626;2022-12-24T11:30:12;3.45;;;0.90;;
18433;SDS011;9344;52.294;13.626;2022-12-24T11:35:45;3.10;;;1.20;;
18433;SDS011;9344;52.294;13.626;2022-12-24T11:38:18;2.85;;;1.40;;
18433;SDS011;9344;52.294;13.626;2022-12-24T11:40:47;2.80;;;1.23;;
18433;SDS011;9344;52.294;13.626;2022-12-24T11:43:16;2.88;;;1.30;;
18433;SDS011;9344;52.294;13.626;2022-12-24T11:45:48;2.65;;;1.38;;
18433;SDS011;9344;52.294;13.626;2022-12-24T11:48:23;2.75;;;1.45;;
18433;SDS011;9344;52.294;13.626;2022-12-24T11:50:55;3.50;;;1.45;;
18433;SDS011;9344;52.294;13.626;2022-12-24T11:53:24;2.70;;;1.38;;
18433;SDS011;9344;52.294;13.626;2022-12-24T11:55:56;5.35;;;1.52;;
18433;SDS011;9344;52.294;13.626;2022-12-24T11:58:27;7.43;;;1.77;;
18433;SDS011;9344;52.294;13.626;2022-12-24T12:01:08;6.28;;;2.13;;
18433;SDS011;9344;52.294;13.626;2022-12-24T12:03:40;6.43;;;2.00;;
18433;SDS011;9344;52.294;13.626;2022-12-24T12:06:18;6.30;;;1.95;;
18433;SDS011;9344;52.294;13.626;2022-12-24T12:08:55;6.28;;;1.88;;
18433;SDS011;9344;52.294;13.626;2022-12-24T12:11:24;3.20;;;1.90;;
18433;SDS011;9344;52.294;13.626;2022-12-24T12:13:54;4.57;;;1.67;;
18433;SDS011;9344;52.294;13.626;2022-12-24T12:16:24;7.70;;;2.03;;
18433;SDS011;9344;52.294;13.626;2022-12-24T12:19:17;6.05;;;2.20;;
18433;SDS011;9344;52.294;13.626;2022-12-24T12:21:47;9.75;;;1.95;;
18433;SDS011;9344;52.294;13.626;2022-12-24T12:24:17;6.97;;;2.00;;
18433;SDS011;9344;52.294;13.626;2022-12-24T12:26:47;4.70;;;1.80;;
18433;SDS011;9344;52.294;13.626;2022-12-24T12:29:22;8.88;;;2.20;;
18433;SDS011;9344;52.294;13.626;2022-12-24T12:31:53;9.73;;;2.25;;
18433;SDS011;9344;52.294;13.626;2022-12-24T12:34:23;3.95;;;1.73;;
18433;SDS011;9344;52.294;13.626;2022-12-24T12:36:57;10.43;;;2.67;;
18433;SDS011;9344;52.294;13.626;2022-12-24T12:39:31;11.35;;;2.30;;
18433;SDS011;9344;52.294;13.626;2022-12-24T12:42:01;6.80;;;2.47;;
18433;SDS011;9344;52.294;13.626;2022-12-24T12:44:48;6.70;;;2.08;;
18433;SDS011;9344;52.294;13.626;2022-12-24T12:47:27;7.70;;;2.13;;
18433;SDS011;9344;52.294;13.626;2022-12-24T12:50:07;6.38;;;2.17;;
18433;SDS011;9344;52.294;13.626;2022-12-24T12:52:53;4.80;;;2.17;;
18433;SDS011;9344;52.294;13.626;2022-12-24T12:55:44;14.52;;;2.70;;
18433;SDS011;9344;52.294;13.626;2022-12-24T12:58:18;12.63;;;2.47;;
18433;SDS011;9344;52.294;13.626;2022-12-24T13:00:49;12.70;;;2.63;;
18433;SDS011;9344;52.294;13.626;2022-12-24T13:03:27;11.98;;;2.22;;
18433;SDS011;9344;52.294;13.626;2022-12-24T13:06:26;12.90;;;2.75;;
18433;SDS011;9344;52.294;13.626;2022-12-24T13:09:17;11.40;;;2.30;;
18433;SDS011;9344;52.294;13.626;2022-12-24T13:12:01;15.27;;;2.38;;
18433;SDS011;9344;52.294;13.626;2022-12-24T13:14:48;11.55;;;2.38;;
18433;SDS011;9344;52.294;13.626;2022-12-24T13:20:41;6.40;;;2.10;;
18433;SDS011;9344;52.294;13.626;2022-12-24T13:23:12;8.25;;;2.20;;
18433;SDS011;9344;52.294;13.626;2022-12-24T13:25:43;12.95;;;2.70;;
18433;SDS011;9344;52.294;13.626;2022-12-24T13:28:16;9.77;;;2.40;;
18433;SDS011;9344;52.294;13.626;2022-12-24T13:33:52;9.48;;;2.17;;
18433;SDS011;9344;52.294;13.626;2022-12-24T13:36:19;12.23;;;2.13;;
18433;SDS011;9344;52.294;13.626;2022-12-24T13:38:47;12.05;;;2.53;;
18433;SDS011;9344;52.294;13.626;2022-12-24T13:44:22;8.55;;;2.35;;
18433;SDS011;9344;52.294;13.626;2022-12-24T13:47:01;13.48;;;2.55;;
18433;SDS011;9344;52.294;13.626;2022-12-24T13:49:34;12.25;;;3.00;;
18433;SDS011;9344;52.294;13.626;2022-12-24T13:55:03;11.18;;;2.22;;
18433;SDS011;9344;52.294;13.626;2022-12-24T13:57:34;13.57;;;2.42;;
18433;SDS011;9344;52.294;13.626;2022-12-24T14:00:06;5.75;;;2.33;;
18433;SDS011;9344;52.294;13.626;2022-12-24T14:02:48;10.52;;;2.75;;
18433;SDS011;9344;52.294;13.626;2022-12-24T14:05:18;10.88;;;2.05;;
18433;SDS011;9344;52.294;13.626;2022-12-24T14:07:50;7.38;;;2.65;;
18433;SDS011;9344;52.294;13.626;2022-12-24T14:10:20;8.98;;;2.28;;
18433;SDS011;9344;52.294;13.626;2022-12-24T14:12:51;11.55;;;2.83;;
18433;SDS011;9344;52.294;13.626;2022-12-24T14:18:32;12.82;;;2.60;;
18433;SDS011;9344;52.294;13.626;2022-12-24T14:21:02;10.38;;;2.72;;
18433;SDS011;9344;52.294;13.626;2022-12-24T14:23:33;8.77;;;2.70;;
18433;SDS011;9344;52.294;13.626;2022-12-24T14:26:09;15.20;;;4.00;;
18433;SDS011;9344;52.294;13.626;2022-12-24T14:28:39;10.13;;;2.85;;
18433;SDS011;9344;52.294;13.626;2022-12-24T14:31:12;10.43;;;2.40;;
18433;SDS011;9344;52.294;13.626;2022-12-24T14:33:42;10.38;;;2.60;;
18433;SDS011;9344;52.294;13.626;2022-12-24T14:36:08;11.63;;;2.75;;
18433;SDS011;9344;52.294;13.626;2022-12-24T14:38:38;8.43;;;2.55;;
18433;SDS011;9344;52.294;13.626;2022-12-24T14:41:07;12.57;;;2.70;;
18433;SDS011;9344;52.294;13.626;2022-12-24T14:43:47;8.80;;;3.00;;
18433;SDS011;9344;52.294;13.626;2022-12-24T14:46:21;16.98;;;2.45;;
18433;SDS011;9344;52.294;13.626;2022-12-24T14:48:55;9.30;;;2.78;;
18433;SDS011;9344;52.294;13.626;2022-12-24T14:51:27;10.50;;;2.63;;
18433;SDS011;9344;52.294;13.626;2022-12-24T14:54:07;16.20;;;2.70;;
18433;SDS011;9344;52.294;13.626;2022-12-24T14:56:56;18.65;;;3.00;;
18433;SDS011;9344;52.294;13.626;2022-12-24T14:59:39;10.77;;;3.40;;
18433;SDS011;9344;52.294;13.626;2022-12-24T15:02:21;12.35;;;2.60;;
18433;SDS011;9344;52.294;13.626;2022-12-24T15:05:02;7.38;;;2.50;;
18433;SDS011;9344;52.294;13.626;2022-12-24T15:07:30;10.43;;;2.60;;
18433;SDS011;9344;52.294;13.626;2022-12-24T15:09:58;13.52;;;3.10;;
18433;SDS011;9344;52.294;13.626;2022-12-24T15:12:25;9.43;;;2.60;;
18433;SDS011;9344;52.294;13.626;2022-12-24T15:14:51;8.25;;;2.70;;
18433;SDS011;9344;52.294;13.626;2022-12-24T15:17:18;10.32;;;2.95;;
18433;SDS011;9344;52.294;13.626;2022-12-24T15:19:46;7.82;;;2.30;;
18433;SDS011;9344;52.294;13.626;2022-12-24T15:22:22;13.07;;;2.70;;